createdAt,value
2023-01-08T00:01:24.378Z,89.64
2023-01-08T00:03:52.136Z,91.42
2023-01-08T00:06:25.241Z,91.79
2023-01-08T00:08:52.683Z,90.41
2023-01-08T00:11:20.183Z,90.27
2023-01-08T00:13:47.710Z,89.67
2023-01-08T00:16:18.120Z,90.03
2023-01-08T00:18:47.659Z,91.70
2023-01-08T00:21:15.373Z,91.73
2023-01-08T00:23:42.921Z,91.53
2023-01-08T00:26:11.685Z,91.36
2023-01-08T00:28:39.587Z,92.65
2023-01-08T00:31:13.434Z,93.07
2023-01-08T00:33:41.773Z,92.89
2023-01-08T00:36:15.725Z,91.42
2023-01-08T00:38:45.160Z,92.25
2023-01-08T00:41:14.790Z,91.90
2023-01-08T00:43:42.592Z,90.99
2023-01-08T00:46:10.327Z,90.90
2023-01-08T00:48:38.938Z,92.11
2023-01-08T00:51:08.826Z,92.58
2023-01-08T00:53:38.163Z,91.82
2023-01-08T00:56:10.966Z,92.08
2023-01-08T00:58:39.193Z,91.98
2023-01-08T01:01:12.689Z,91.00
2023-01-08T01:03:40.877Z,91.91
2023-01-08T01:06:10.747Z,91.13
2023-01-08T01:08:38.278Z,90.63
2023-01-08T01:11:19.102Z,91.12
2023-01-08T01:13:47.459Z,91.25
2023-01-08T01:16:15.016Z,92.27
2023-01-08T01:18:42.677Z,91.21
2023-01-08T01:21:18.135Z,91.28
2023-01-08T01:23:45.593Z,91.25
2023-01-08T01:26:21.275Z,91.34
2023-01-08T01:28:54.623Z,91.29
2023-01-08T01:31:23.568Z,91.58
2023-01-08T01:33:51.571Z,91.20
2023-01-08T01:36:23.535Z,91.87
2023-01-08T01:38:54.137Z,90.70
2023-01-08T01:41:42.456Z,89.82
2023-01-08T01:44:44.318Z,88.88
2023-01-08T01:47:34.355Z,89.96
2023-01-08T01:50:09.748Z,91.39
2023-01-08T01:53:00.278Z,92.40
2023-01-08T01:55:28.692Z,93.69
2023-01-08T01:58:06.807Z,93.25
2023-01-08T02:00:35.632Z,93.97
2023-01-08T02:03:06.032Z,94.48
2023-01-08T02:06:01.726Z,94.08
2023-01-08T02:08:49.639Z,92.81
2023-01-08T02:12:13.584Z,93.11
2023-01-08T02:15:17.501Z,93.17
2023-01-08T02:18:09.692Z,92.62
2023-01-08T02:20:56.859Z,93.61
2023-01-08T02:23:36.676Z,93.73
2023-01-08T02:26:17.023Z,93.25
2023-01-08T02:28:55.684Z,92.14
2023-01-08T02:31:25.831Z,91.98
2023-01-08T02:33:53.558Z,91.49
2023-01-08T02:36:26.766Z,90.94
2023-01-08T02:39:30.740Z,89.66
2023-01-08T02:42:22.030Z,89.80
2023-01-08T02:44:55.117Z,90.64
2023-01-08T02:47:35.747Z,91.84
2023-01-08T02:50:25.186Z,91.74
2023-01-08T02:53:18.008Z,91.39
2023-01-08T02:55:58.061Z,91.53
2023-01-08T02:58:29.752Z,92.13
2023-01-08T03:00:57.739Z,92.53
2023-01-08T03:03:28.939Z,93.72
2023-01-08T03:06:04.983Z,94.11
2023-01-08T03:08:36.331Z,95.36
2023-01-08T03:11:08.415Z,94.94
2023-01-08T03:13:47.151Z,93.86
2023-01-08T03:16:26.389Z,92.38
2023-01-08T03:19:01.611Z,92.87
2023-01-08T03:21:29.265Z,93.95
2023-01-08T03:23:57.996Z,95.71
2023-01-08T03:26:28.170Z,96.29
2023-01-08T03:28:58.264Z,95.82
2023-01-08T03:31:29.262Z,95.26
2023-01-08T03:33:57.995Z,95.52
2023-01-08T03:36:30.799Z,95.76
2023-01-08T03:39:12.948Z,94.45
2023-01-08T03:41:40.458Z,95.31
2023-01-08T03:44:07.949Z,95.27
2023-01-08T03:46:42.665Z,96.21
2023-01-08T03:49:10.920Z,96.51
2023-01-08T03:51:44.018Z,96.39
2023-01-08T03:54:17.871Z,95.88
2023-01-08T03:56:45.496Z,96.25
2023-01-08T03:59:14.237Z,96.95
2023-01-08T04:01:42.449Z,97.60
2023-01-08T04:04:11.796Z,97.92
2023-01-08T04:06:41.022Z,97.24
2023-01-08T04:09:08.487Z,96.93
2023-01-08T04:11:35.989Z,98.44
2023-01-08T04:14:03.755Z,97.28
2023-01-08T04:16:31.838Z,96.58
2023-01-08T04:18:59.329Z,95.97
2023-01-08T04:21:26.783Z,96.09
2023-01-08T04:23:55.571Z,96.28
2023-01-08T04:26:23.095Z,97.22
2023-01-08T04:28:50.493Z,96.61
2023-01-08T04:31:18.052Z,97.13
2023-01-08T04:33:45.579Z,96.87
2023-01-08T04:36:13.250Z,96.86
2023-01-08T04:38:40.859Z,97.23
2023-01-08T04:41:08.328Z,95.83
2023-01-08T04:43:35.788Z,96.14
2023-01-08T04:46:07.627Z,96.67
2023-01-08T04:48:35.854Z,96.42
2023-01-08T04:51:05.227Z,97.54
2023-01-08T04:53:36.905Z,97.30
2023-01-08T04:56:07.493Z,97.16
2023-01-08T04:58:36.767Z,97.21
2023-01-08T05:01:20.628Z,95.33
2023-01-08T05:03:48.676Z,95.63
2023-01-08T05:06:16.459Z,95.45
2023-01-08T05:08:43.906Z,95.05
2023-01-08T05:11:11.423Z,95.02
2023-01-08T05:13:38.968Z,95.26
2023-01-08T05:16:06.859Z,95.93
2023-01-08T05:18:34.468Z,97.38
2023-01-08T05:21:03.697Z,97.13
2023-01-08T05:23:32.736Z,96.81
2023-01-08T05:26:02.479Z,97.94
2023-01-08T05:28:30.623Z,99.56
2023-01-08T05:30:58.906Z,98.09
2023-01-08T05:33:27.128Z,98.13
2023-01-08T05:35:54.739Z,98.63
2023-01-08T05:38:22.567Z,97.63
2023-01-08T05:40:53.621Z,97.61
2023-01-08T05:43:21.324Z,97.88
2023-01-08T05:45:49.048Z,96.89
2023-01-08T05:48:16.481Z,96.58
2023-01-08T05:50:44.051Z,95.53
2023-01-08T05:53:12.236Z,95.77
2023-01-08T05:55:39.684Z,95.81
2023-01-08T05:58:07.415Z,95.86
2023-01-08T06:00:35.974Z,95.59
2023-01-08T06:03:03.617Z,96.14
2023-01-08T06:05:33.041Z,96.38
2023-01-08T06:08:01.283Z,95.53
2023-01-08T06:10:28.987Z,94.57
2023-01-08T06:12:56.927Z,95.22
2023-01-08T06:15:24.372Z,95.46
2023-01-08T06:17:51.831Z,95.20
2023-01-08T06:20:19.311Z,95.15
2023-01-08T06:22:46.783Z,96.03
2023-01-08T06:25:14.428Z,95.88
2023-01-08T06:27:41.955Z,95.43
2023-01-08T06:30:10.159Z,95.33
2023-01-08T06:32:37.652Z,95.31
2023-01-08T06:35:07.223Z,94.42
2023-01-08T06:37:35.244Z,93.48
2023-01-08T06:40:02.944Z,94.12
2023-01-08T06:42:30.400Z,93.89
2023-01-08T06:44:57.831Z,94.17
2023-01-08T06:47:25.320Z,94.02
2023-01-08T06:49:54.191Z,92.69
2023-01-08T06:52:21.689Z,92.39
2023-01-08T06:54:49.234Z,92.08
2023-01-08T06:57:16.774Z,92.27
2023-01-08T06:59:44.288Z,92.86
2023-01-08T07:02:18.487Z,93.16
2023-01-08T07:04:46.106Z,93.32
2023-01-08T07:07:15.799Z,92.58
2023-01-08T07:09:43.899Z,91.91
2023-01-08T07:12:15.181Z,91.52
2023-01-08T07:14:42.818Z,91.03
2023-01-08T07:17:10.320Z,91.54
2023-01-08T07:19:39.201Z,91.15
2023-01-08T07:22:06.732Z,91.82
2023-01-08T07:24:34.896Z,91.85
2023-01-08T07:27:04.747Z,90.92
2023-01-08T07:29:32.190Z,89.54
2023-01-08T07:31:59.789Z,89.34
2023-01-08T07:34:27.274Z,88.67
2023-01-08T07:36:54.774Z,88.69
2023-01-08T07:39:22.264Z,89.13
2023-01-08T07:41:49.776Z,87.91
2023-01-08T07:44:18.441Z,88.60
2023-01-08T07:46:46.235Z,86.56
2023-01-08T07:49:13.838Z,85.33
2023-01-08T07:51:41.460Z,83.72
2023-01-08T07:54:09.429Z,82.62
2023-01-08T07:56:36.942Z,81.76
2023-01-08T07:59:04.409Z,79.01
2023-01-08T08:01:31.976Z,81.00
2023-01-08T08:03:59.580Z,80.84
2023-01-08T08:06:27.261Z,80.48
2023-01-08T08:08:56.810Z,80.91
2023-01-08T08:11:24.295Z,81.66
2023-01-08T08:13:55.921Z,80.77
2023-01-08T08:16:24.244Z,78.48
2023-01-08T08:18:52.937Z,78.46
2023-01-08T08:21:20.440Z,78.93
2023-01-08T08:23:48.366Z,78.21
2023-01-08T08:26:15.815Z,77.49
2023-01-08T08:28:43.366Z,76.22
2023-01-08T08:31:10.951Z,75.09
2023-01-08T08:33:39.078Z,76.12
2023-01-08T08:36:08.779Z,75.86
2023-01-08T08:38:38.455Z,75.69
2023-01-08T08:41:06.419Z,74.80
2023-01-08T08:43:34.880Z,74.68
2023-01-08T08:46:02.385Z,73.36
2023-01-08T08:48:29.955Z,73.56
2023-01-08T08:50:57.933Z,73.11
2023-01-08T08:53:27.669Z,72.04
2023-01-08T08:55:57.820Z,70.16
2023-01-08T08:58:25.318Z,68.96
2023-01-08T09:00:52.765Z,68.26
2023-01-08T09:03:20.443Z,66.60
2023-01-08T09:05:49.203Z,64.81
2023-01-08T09:08:16.655Z,62.85
2023-01-08T09:10:45.674Z,62.08
2023-01-08T09:13:13.240Z,59.74
2023-01-08T09:15:41.300Z,58.53
2023-01-08T09:18:09.386Z,58.78
2023-01-08T09:20:37.193Z,70.77
2023-01-08T09:23:04.950Z,62.87
2023-01-08T09:25:33.225Z,60.07
2023-01-08T09:28:12.145Z,56.29
2023-01-08T09:30:41.019Z,56.63
2023-01-08T09:33:09.107Z,52.65
2023-01-08T09:35:37.623Z,53.30
2023-01-08T09:38:05.227Z,51.35
2023-01-08T09:40:41.075Z,54.36
2023-01-08T09:43:15.105Z,53.68
2023-01-08T09:45:43.674Z,50.88
2023-01-08T09:48:19.520Z,50.76
2023-01-08T09:50:49.171Z,50.94
2023-01-08T09:53:19.332Z,49.68
2023-01-08T09:56:11.399Z,49.64
2023-01-08T09:58:53.193Z,47.82
2023-01-08T10:01:24.376Z,46.74
2023-01-08T10:04:00.945Z,49.59
2023-01-08T10:06:28.594Z,50.73
2023-01-08T10:08:58.190Z,51.49
2023-01-08T10:11:31.034Z,49.44
2023-01-08T10:14:00.016Z,50.78
2023-01-08T10:16:36.754Z,52.41
2023-01-08T10:19:07.620Z,50.88
2023-01-08T10:21:41.363Z,51.47
2023-01-08T10:24:08.953Z,49.70
2023-01-08T10:26:39.730Z,50.56
2023-01-08T10:29:21.389Z,52.93
2023-01-08T10:31:55.843Z,53.09
2023-01-08T10:34:51.598Z,52.66
2023-01-08T10:37:37.370Z,53.97
2023-01-08T10:40:29.655Z,53.02
2023-01-08T10:43:05.479Z,52.71
2023-01-08T10:45:34.119Z,51.01
2023-01-08T10:48:05.882Z,51.78
2023-01-08T10:50:36.158Z,53.28
2023-01-08T10:53:08.486Z,54.10
2023-01-08T10:55:37.606Z,52.81
2023-01-08T10:58:15.835Z,53.29
2023-01-08T11:00:43.566Z,51.53
2023-01-08T11:03:32.080Z,53.17
2023-01-08T11:06:00.311Z,50.36
2023-01-08T11:08:27.851Z,48.62
2023-01-08T11:11:01.451Z,46.54
2023-01-08T11:13:30.925Z,45.98
2023-01-08T11:16:08.370Z,44.24
2023-01-08T11:18:57.283Z,42.50
2023-01-08T11:21:31.077Z,42.03
2023-01-08T11:24:21.483Z,41.35
2023-01-08T11:27:16.677Z,41.28
2023-01-08T11:30:12.540Z,43.78
2023-01-08T11:32:51.644Z,45.88
2023-01-08T11:35:28.548Z,45.66
2023-01-08T11:38:03.344Z,44.30
2023-01-08T11:41:14.773Z,45.82
2023-01-08T11:44:19.372Z,45.34
2023-01-08T11:47:25.263Z,46.66
2023-01-08T11:49:55.468Z,43.99
2023-01-08T11:53:09.014Z,41.28
2023-01-08T11:55:57.528Z,39.71
2023-01-08T11:59:01.099Z,37.72
2023-01-08T12:02:04.859Z,37.41
2023-01-08T12:05:43.492Z,39.87
2023-01-08T12:08:33.433Z,40.21
2023-01-08T12:11:26.455Z,38.59
2023-01-08T12:14:36.339Z,38.31
2023-01-08T12:17:42.780Z,39.97
2023-01-08T12:20:31.524Z,39.10
2023-01-08T12:32:24.227Z,38.97
2023-01-08T12:35:21.518Z,39.74
2023-01-08T12:38:19.485Z,41.67
2023-01-08T12:41:11.926Z,41.39
2023-01-08T12:44:06.034Z,40.06
2023-01-08T12:46:40.255Z,41.88
2023-01-08T12:49:15.689Z,40.71
2023-01-08T12:52:03.265Z,41.00
2023-01-08T12:54:42.496Z,38.62
2023-01-08T12:57:33.614Z,39.83
2023-01-08T13:00:17.447Z,39.43
2023-01-08T13:03:02.703Z,37.54
2023-01-08T13:05:38.328Z,36.92
2023-01-08T13:08:29.944Z,37.76
2023-01-08T13:10:57.901Z,37.53
2023-01-08T13:13:32.885Z,38.25
2023-01-08T13:16:14.400Z,38.73
2023-01-08T13:19:02.449Z,36.62
2023-01-08T13:21:36.909Z,37.16
2023-01-08T13:24:07.994Z,37.25
2023-01-08T13:26:37.309Z,38.80
2023-01-08T13:29:38.765Z,39.88
2023-01-08T13:32:48.612Z,37.94
2023-01-08T13:35:16.143Z,38.31
2023-01-08T13:37:46.181Z,36.53
2023-01-08T13:40:44.671Z,36.50
2023-01-08T13:43:24.346Z,37.52
2023-01-08T13:46:00.620Z,37.38
2023-01-08T13:48:35.374Z,36.98
2023-01-08T13:51:03.793Z,37.27
2023-01-08T13:53:31.739Z,36.67
2023-01-08T13:56:07.157Z,37.01
2023-01-08T13:58:45.971Z,37.04
2023-01-08T14:01:14.901Z,37.76
2023-01-08T14:03:49.824Z,38.23
2023-01-08T14:06:26.664Z,37.54
2023-01-08T14:08:58.431Z,38.70
2023-01-08T14:11:41.996Z,38.21
2023-01-08T14:14:21.266Z,38.34
2023-01-08T14:16:51.570Z,38.04
2023-01-08T14:19:24.105Z,38.15
2023-01-08T14:21:55.439Z,39.81
2023-01-08T14:24:27.583Z,39.81
2023-01-08T14:27:00.896Z,39.56
2023-01-08T14:29:32.988Z,39.72
2023-01-08T14:32:23.888Z,40.43
2023-01-08T14:34:55.953Z,41.13
2023-01-08T14:37:24.512Z,42.88
2023-01-08T14:39:54.676Z,44.29
2023-01-08T14:42:42.995Z,46.42
2023-01-08T14:45:25.061Z,47.71
2023-01-08T14:48:10.561Z,49.89
2023-01-08T14:50:59.607Z,50.88
2023-01-08T14:53:39.658Z,52.04
2023-01-08T14:56:10.108Z,51.55
2023-01-08T14:58:43.772Z,52.37
2023-01-08T15:01:30.224Z,53.38
2023-01-08T15:04:20.221Z,54.08
2023-01-08T15:06:51.360Z,54.32
2023-01-08T15:09:33.213Z,55.24
2023-01-08T15:12:27.945Z,55.52
2023-01-08T15:14:56.616Z,55.95
2023-01-08T15:17:29.367Z,56.53
2023-01-08T15:20:00.696Z,57.27
2023-01-08T15:22:32.814Z,57.91
2023-01-08T15:25:07.465Z,58.27
2023-01-08T15:27:37.370Z,59.63
2023-01-08T15:30:09.350Z,60.06
2023-01-08T15:32:39.858Z,60.78
2023-01-08T15:35:20.483Z,60.95
2023-01-08T15:37:48.535Z,62.63
2023-01-08T15:40:16.642Z,63.46
2023-01-08T15:43:03.781Z,63.97
2023-01-08T15:45:32.495Z,64.49
2023-01-08T15:48:01.462Z,64.15
2023-01-08T15:50:32.458Z,64.31
2023-01-08T15:53:01.373Z,64.57
2023-01-08T15:55:28.942Z,65.22
2023-01-08T15:57:56.482Z,65.49
2023-01-08T16:00:24.212Z,65.84
2023-01-08T16:02:54.711Z,66.41
2023-01-08T16:05:26.538Z,67.72
2023-01-08T16:07:55.110Z,67.66
2023-01-08T16:10:25.376Z,68.68
2023-01-08T16:12:52.936Z,69.57
2023-01-08T16:15:21.121Z,70.46
2023-01-08T16:17:54.196Z,70.80
2023-01-08T16:20:21.686Z,71.14
2023-01-08T16:22:49.337Z,71.06
2023-01-08T16:25:19.846Z,71.29
2023-01-08T16:27:48.966Z,71.78
2023-01-08T16:30:17.780Z,71.82
2023-01-08T16:32:51.302Z,71.66
2023-01-08T16:35:19.760Z,72.50
2023-01-08T16:37:47.290Z,72.60
2023-01-08T16:40:16.303Z,72.85
2023-01-08T16:42:44.047Z,73.41
2023-01-08T16:45:14.280Z,73.60
2023-01-08T16:47:46.445Z,74.23
2023-01-08T16:50:17.107Z,74.99
2023-01-08T16:52:46.270Z,74.92
2023-01-08T16:55:18.302Z,75.27
2023-01-08T16:57:49.496Z,75.56
2023-01-08T17:00:42.011Z,75.64
2023-01-08T17:03:11.559Z,76.38
2023-01-08T17:05:43.279Z,76.97
2023-01-08T17:08:16.074Z,77.20
2023-01-08T17:10:45.133Z,77.22
2023-01-08T17:13:12.836Z,78.25
2023-01-08T17:15:41.258Z,78.76
2023-01-08T17:18:08.747Z,78.67
2023-01-08T17:20:38.389Z,79.09
2023-01-08T17:23:07.300Z,79.89
2023-01-08T17:25:39.557Z,80.55
2023-01-08T17:28:09.747Z,80.02
2023-01-08T17:30:38.557Z,80.64
2023-01-08T17:33:07.762Z,80.98
2023-01-08T17:35:38.333Z,81.46
2023-01-08T17:38:06.937Z,81.26
2023-01-08T17:40:34.659Z,81.05
2023-01-08T17:43:02.135Z,80.92
2023-01-08T17:45:31.048Z,81.93
2023-01-08T17:48:01.059Z,80.87
2023-01-08T17:50:29.031Z,81.83
2023-01-08T17:53:00.097Z,81.87
2023-01-08T17:55:29.822Z,82.15
2023-01-08T17:57:57.761Z,82.17
2023-01-08T18:00:26.756Z,81.94
2023-01-08T18:02:56.797Z,82.26
2023-01-08T18:05:24.477Z,82.90
2023-01-08T18:07:52.078Z,83.28
2023-01-08T18:10:22.229Z,83.95
2023-01-08T18:12:51.922Z,83.74
2023-01-08T18:15:19.574Z,83.69
2023-01-08T18:17:48.311Z,83.80
2023-01-08T18:20:16.209Z,83.96
2023-01-08T18:22:50.159Z,83.70
2023-01-08T18:25:25.584Z,83.73
2023-01-08T18:27:55.313Z,83.84
2023-01-08T18:30:23.413Z,84.03
2023-01-08T18:32:51.107Z,84.59
2023-01-08T18:35:19.775Z,84.83
2023-01-08T18:37:48.932Z,84.86
2023-01-08T18:40:17.928Z,85.37
2023-01-08T18:42:49.074Z,85.78
2023-01-08T18:45:19.527Z,85.49
2023-01-08T18:47:56.672Z,86.52
2023-01-08T18:50:25.526Z,85.53
2023-01-08T18:52:54.370Z,86.32
2023-01-08T18:55:22.259Z,86.65
2023-01-08T18:57:51.308Z,85.99
2023-01-08T19:00:25.874Z,86.59
2023-01-08T19:02:56.929Z,86.22
2023-01-08T19:05:24.567Z,86.43
2023-01-08T19:07:56.370Z,86.37
2023-01-08T19:10:26.219Z,87.27
2023-01-08T19:12:56.054Z,87.23
2023-01-08T19:15:47.013Z,87.22
2023-01-08T19:18:14.877Z,87.09
2023-01-08T19:20:46.306Z,88.04
2023-01-08T19:23:19.271Z,87.44
2023-01-08T19:25:50.754Z,86.98
2023-01-08T19:28:38.963Z,85.52
2023-01-08T19:31:15.960Z,85.67
2023-01-08T19:33:59.917Z,86.13
2023-01-08T19:36:28.284Z,86.60
2023-01-08T19:38:59.834Z,85.98
2023-01-08T19:41:45.947Z,87.38
2023-01-08T19:44:17.880Z,86.38
2023-01-08T19:46:45.570Z,82.94
2023-01-08T19:49:14.713Z,84.14
2023-01-08T19:51:43.420Z,85.64
2023-01-08T19:54:15.227Z,87.24
2023-01-08T19:56:45.505Z,87.89
2023-01-08T19:59:13.545Z,88.41
2023-01-08T20:01:42.973Z,89.10
2023-01-08T20:04:12.591Z,89.59
2023-01-08T20:06:40.989Z,89.49
2023-01-08T20:09:09.857Z,90.99
2023-01-08T20:11:38.690Z,91.66
2023-01-08T20:14:10.440Z,91.21
2023-01-08T20:16:41.233Z,91.03
2023-01-08T20:19:11.082Z,90.43
2023-01-08T20:21:39.494Z,89.67
2023-01-08T20:24:15.457Z,89.04
2023-01-08T20:26:49.260Z,89.87
2023-01-08T20:29:18.208Z,90.28
2023-01-08T20:31:46.194Z,89.87
2023-01-08T20:34:17.309Z,91.27
2023-01-08T20:36:46.683Z,91.21
2023-01-08T20:39:17.856Z,91.21
2023-01-08T20:41:55.457Z,90.65
2023-01-08T20:44:32.397Z,89.17
2023-01-08T20:47:01.413Z,89.55
2023-01-08T20:49:29.931Z,88.04
2023-01-08T20:52:00.092Z,87.67
2023-01-08T20:54:29.995Z,88.34
2023-01-08T20:56:59.249Z,87.54
2023-01-08T20:59:27.950Z,87.49
2023-01-08T21:01:57.361Z,87.48
2023-01-08T21:04:27.395Z,88.59
2023-01-08T21:06:55.040Z,89.78
2023-01-08T21:09:23.205Z,88.35
2023-01-08T21:11:52.350Z,89.19
2023-01-08T21:14:25.094Z,90.96
2023-01-08T21:16:54.617Z,90.60
2023-01-08T21:19:23.909Z,91.51
2023-01-08T21:21:54.592Z,91.81
2023-01-08T21:24:27.338Z,91.66
2023-01-08T21:26:55.956Z,91.33
2023-01-08T21:29:24.948Z,91.81
2023-01-08T21:31:53.408Z,91.75
2023-01-08T21:34:25.032Z,91.04
2023-01-08T21:36:53.157Z,91.58
2023-01-08T21:39:23.301Z,92.20
2023-01-08T21:42:10.026Z,92.88
2023-01-08T21:44:55.974Z,93.00
2023-01-08T21:47:23.982Z,92.72
2023-01-08T21:49:51.509Z,91.76
2023-01-08T21:52:41.963Z,91.62
2023-01-08T21:55:10.529Z,93.38
2023-01-08T21:57:40.088Z,93.32
2023-01-08T22:00:08.720Z,93.55
2023-01-08T22:02:37.110Z,93.86
2023-01-08T22:05:05.846Z,94.99
2023-01-08T22:07:34.539Z,95.29
2023-01-08T22:10:03.872Z,96.03
2023-01-08T22:12:31.398Z,95.91
2023-01-08T22:14:59.086Z,96.38
2023-01-08T22:17:29.240Z,96.80
2023-01-08T22:19:57.993Z,97.64
2023-01-08T22:22:26.064Z,97.45
2023-01-08T22:24:53.757Z,97.43
2023-01-08T22:27:22.360Z,98.21
2023-01-08T22:29:49.965Z,98.66
2023-01-08T22:32:17.563Z,100.00
2023-01-08T22:34:45.079Z,99.69
2023-01-08T22:37:12.556Z,98.77
2023-01-08T22:39:41.487Z,97.65
2023-01-08T22:42:09.080Z,97.83
2023-01-08T22:44:36.764Z,98.53
2023-01-08T22:47:06.069Z,99.35
2023-01-08T22:49:33.672Z,99.14
2023-01-08T22:52:01.187Z,99.02
2023-01-08T22:54:28.872Z,98.62
2023-01-08T22:56:56.431Z,97.78
2023-01-08T22:59:23.919Z,95.97
2023-01-08T23:01:51.405Z,95.33
2023-01-08T23:04:18.909Z,94.57
2023-01-08T23:06:47.001Z,93.40
2023-01-08T23:09:14.596Z,94.07
2023-01-08T23:11:42.333Z,95.06
2023-01-08T23:14:14.551Z,94.52
2023-01-08T23:16:42.717Z,96.06
2023-01-08T23:19:10.862Z,96.66
2023-01-08T23:21:38.712Z,98.53
2023-01-08T23:24:09.717Z,99.78
2023-01-08T23:26:37.248Z,100.00
2023-01-08T23:29:05.140Z,100.00
2023-01-08T23:31:32.816Z,100.00
2023-01-08T23:34:00.462Z,100.00
2023-01-08T23:36:27.957Z,100.00
2023-01-08T23:38:56.651Z,100.00
2023-01-08T23:41:33.175Z,100.00
2023-01-08T23:44:12.502Z,100.00
2023-01-08T23:46:40.029Z,100.00
2023-01-08T23:49:07.806Z,100.00
2023-01-08T23:51:35.653Z,100.00
2023-01-08T23:54:06.263Z,100.00
2023-01-08T23:56:34.035Z,100.00
2023-01-08T23:59:01.997Z,100.00
